createdAt,value
2019-05-06T00:00:34.166Z,100.0000
2019-05-06T00:02:54.469Z,100.0000
2019-05-06T00:05:14.387Z,100.0000
2019-05-06T00:07:34.034Z,100.0000
2019-05-06T00:09:53.866Z,100.0000
2019-05-06T00:12:14.367Z,100.0000
2019-05-06T00:14:33.956Z,100.0000
2019-05-06T00:16:54.581Z,100.0000
2019-05-06T00:19:13.965Z,100.0000
2019-05-06T00:21:32.434Z,100.0000
2019-05-06T00:23:51.581Z,100.0000
2019-05-06T00:26:10.718Z,100.0000
2019-05-06T00:28:29.127Z,100.0000
2019-05-06T00:30:48.368Z,100.0000
2019-05-06T00:33:08.547Z,100.0000
2019-05-06T00:35:27.792Z,100.0000
2019-05-06T00:37:46.952Z,100.0000
2019-05-06T00:40:06.395Z,100.0000
2019-05-06T00:42:25.604Z,100.0000
2019-05-06T00:44:44.919Z,100.0000
2019-05-06T00:47:04.410Z,100.0000
2019-05-06T00:49:23.915Z,100.0000
2019-05-06T00:51:43.995Z,100.0000
2019-05-06T00:54:04.040Z,100.0000
2019-05-06T00:56:24.336Z,100.0000
2019-05-06T00:58:43.659Z,100.0000
2019-05-06T01:01:04.579Z,100.0000
2019-05-06T01:03:24.107Z,100.0000
2019-05-06T01:05:44.371Z,100.0000
2019-05-06T01:08:04.075Z,100.0000
2019-05-06T01:10:23.829Z,100.0000
2019-05-06T01:12:43.508Z,100.0000
2019-05-06T01:15:03.830Z,100.0000
2019-05-06T01:17:24.355Z,100.0000
2019-05-06T01:19:45.708Z,100.0000
2019-05-06T01:22:05.375Z,100.0000
2019-05-06T01:24:24.103Z,100.0000
2019-05-06T01:26:44.336Z,100.0000
2019-05-06T01:29:03.981Z,100.0000
2019-05-06T01:31:24.713Z,100.0000
2019-05-06T01:33:45.505Z,100.0000
2019-05-06T01:36:04.554Z,100.0000
2019-05-06T01:38:24.215Z,100.0000
2019-05-06T01:40:44.049Z,100.0000
2019-05-06T01:43:03.619Z,100.0000
2019-05-06T01:45:23.665Z,100.0000
2019-05-06T01:47:43.792Z,100.0000
2019-05-06T01:50:04.480Z,100.0000
2019-05-06T01:52:24.165Z,100.0000
2019-05-06T01:54:43.475Z,100.0000
2019-05-06T01:57:04.426Z,100.0000
2019-05-06T01:59:24.620Z,100.0000
2019-05-06T02:01:57.015Z,100.0000
2019-05-06T02:04:07.386Z,100.0000
2019-05-06T02:06:26.708Z,100.0000
2019-05-06T02:08:45.471Z,100.0000
2019-05-06T02:11:04.840Z,100.0000
2019-05-06T02:13:24.371Z,100.0000
2019-05-06T02:15:44.938Z,100.0000
2019-05-06T02:18:04.346Z,100.0000
2019-05-06T02:20:24.606Z,100.0000
2019-05-06T02:22:44.267Z,100.0000
2019-05-06T02:25:04.444Z,100.0000
2019-05-06T02:27:24.775Z,100.0000
2019-05-06T02:29:44.302Z,100.0000
2019-05-06T02:32:17.148Z,100.0000
2019-05-06T02:34:26.834Z,100.0000
2019-05-06T02:36:45.891Z,100.0000
2019-05-06T02:39:05.283Z,100.0000
2019-05-06T02:41:24.730Z,100.0000
2019-05-06T02:43:44.100Z,100.0000
2019-05-06T02:46:04.204Z,100.0000
2019-05-06T02:48:23.617Z,100.0000
2019-05-06T02:50:42.786Z,100.0000
2019-05-06T02:53:02.657Z,100.0000
2019-05-06T02:55:23.573Z,100.0000
2019-05-06T02:57:43.910Z,100.0000
2019-05-06T03:00:05.116Z,100.0000
2019-05-06T03:02:37.977Z,100.0000
2019-05-06T03:04:48.549Z,100.0000
2019-05-06T03:07:07.666Z,100.0000
2019-05-06T03:09:26.461Z,100.0000
2019-05-06T03:11:45.581Z,100.0000
2019-05-06T03:14:04.385Z,100.0000
2019-05-06T03:16:23.951Z,100.0000
2019-05-06T03:18:43.672Z,100.0000
2019-05-06T03:21:03.815Z,100.0000
2019-05-06T03:23:23.921Z,100.0000
2019-05-06T03:25:43.997Z,100.0000
2019-05-06T03:28:04.131Z,100.0000
2019-05-06T03:30:25.467Z,100.0000
2019-05-06T03:33:20.334Z,100.0000
2019-05-06T03:35:27.486Z,100.0000
2019-05-06T03:37:33.661Z,100.0000
2019-05-06T03:39:52.886Z,100.0000
2019-05-06T03:42:15.934Z,100.0000
2019-05-06T03:44:36.204Z,100.0000
2019-05-06T03:46:55.230Z,100.0000
2019-05-06T03:49:14.903Z,100.0000
2019-05-06T03:51:34.612Z,100.0000
2019-05-06T03:53:56.813Z,100.0000
2019-05-06T03:56:19.659Z,100.0000
2019-05-06T03:58:43.286Z,100.0000
2019-05-06T04:01:03.730Z,100.0000
2019-05-06T04:03:42.011Z,100.0000
2019-05-06T04:05:47.474Z,100.0000
2019-05-06T04:08:05.881Z,100.0000
2019-05-06T04:10:25.344Z,100.0000
2019-05-06T04:12:44.823Z,100.0000
2019-05-06T04:15:04.452Z,100.0000
2019-05-06T04:17:23.801Z,100.0000
2019-05-06T04:19:43.676Z,100.0000
2019-05-06T04:22:03.679Z,100.0000
2019-05-06T04:24:23.258Z,100.0000
2019-05-06T04:26:46.045Z,100.0000
2019-05-06T04:29:06.240Z,100.0000
2019-05-06T04:31:25.375Z,100.0000
2019-05-06T04:34:03.536Z,100.0000
2019-05-06T04:36:09.277Z,100.0000
2019-05-06T04:38:27.570Z,100.0000
2019-05-06T04:40:46.931Z,100.0000
2019-05-06T04:43:06.540Z,100.0000
2019-05-06T04:45:25.814Z,100.0000
2019-05-06T04:47:44.265Z,100.0000
2019-05-06T04:50:04.846Z,100.0000
2019-05-06T04:52:26.126Z,100.0000
2019-05-06T04:54:45.466Z,100.0000
2019-05-06T04:57:05.312Z,100.0000
2019-05-06T04:59:24.382Z,100.0000
2019-05-06T05:01:45.513Z,100.0000
2019-05-06T05:04:22.269Z,99.8306
2019-05-06T05:06:29.644Z,99.0646
2019-05-06T05:08:48.729Z,99.4507
2019-05-06T05:11:08.011Z,99.0600
2019-05-06T05:13:27.102Z,98.2589
2019-05-06T05:15:46.610Z,98.1765
2019-05-06T05:18:05.050Z,98.1949
2019-05-06T05:20:37.074Z,98.3001
2019-05-06T05:22:48.686Z,98.0499
2019-05-06T05:25:07.817Z,97.5097
2019-05-06T05:27:26.341Z,97.4716
2019-05-06T05:29:44.758Z,97.6730
2019-05-06T05:32:03.776Z,97.4044
2019-05-06T05:34:36.402Z,96.8902
2019-05-06T05:36:46.355Z,97.2534
2019-05-06T05:39:05.704Z,96.7636
2019-05-06T05:41:24.774Z,96.3287
2019-05-06T05:43:43.175Z,96.2036
2019-05-06T05:46:02.913Z,95.1461
2019-05-06T05:48:23.351Z,94.6303
2019-05-06T05:50:42.558Z,94.7860
2019-05-06T05:53:02.499Z,93.9193
2019-05-06T05:55:22.193Z,92.9320
2019-05-06T05:57:43.103Z,92.7703
2019-05-06T06:00:03.922Z,91.1818
2019-05-06T06:02:23.237Z,89.1646
2019-05-06T06:04:54.210Z,87.0222
2019-05-06T06:07:05.679Z,85.8442
2019-05-06T06:09:25.384Z,86.6926
2019-05-06T06:11:43.990Z,86.4073
2019-05-06T06:14:03.149Z,86.5644
2019-05-06T06:16:23.272Z,85.5146
2019-05-06T06:18:43.102Z,82.0508
2019-05-06T06:21:17.368Z,83.0976
2019-05-06T06:23:26.521Z,79.3347
2019-05-06T06:25:45.500Z,79.0982
2019-05-06T06:28:04.895Z,79.4583
2019-05-06T06:30:24.071Z,79.0372
2019-05-06T06:32:43.141Z,77.3114
2019-05-06T06:35:10.799Z,76.6476
2019-05-06T06:37:28.894Z,78.5214
2019-05-06T06:39:48.661Z,74.2626
2019-05-06T06:42:06.129Z,75.2056
2019-05-06T06:44:26.989Z,74.1939
2019-05-06T06:46:46.030Z,68.4932
2019-05-06T06:49:07.647Z,68.0949
2019-05-06T06:51:26.666Z,60.9323
2019-05-06T06:53:47.769Z,58.6694
2019-05-06T06:56:12.503Z,58.2208
2019-05-06T06:58:33.299Z,56.7895
2019-05-06T07:00:53.347Z,56.8444
2019-05-06T07:03:12.285Z,55.5749
2019-05-06T07:05:33.069Z,58.7106
2019-05-06T07:07:53.125Z,56.2387
2019-05-06T07:10:12.638Z,53.1777
2019-05-06T07:12:32.830Z,54.7295
2019-05-06T07:14:52.474Z,54.2931
2019-05-06T07:17:13.183Z,55.2514
2019-05-06T07:19:32.772Z,55.9289
2019-05-06T07:21:52.370Z,55.2224
2019-05-06T07:24:13.045Z,56.4630
2019-05-06T07:26:31.831Z,55.3292
2019-05-06T07:28:52.698Z,57.5998
2019-05-06T07:31:21.802Z,52.6314
2019-05-06T07:33:36.815Z,54.5373
2019-05-06T07:35:56.458Z,54.7341
2019-05-06T07:40:45.015Z,52.5856
2019-05-06T07:45:32.879Z,52.2393
2019-05-06T07:47:53.194Z,51.4153
2019-05-06T07:50:13.818Z,47.1977
2019-05-06T07:52:32.851Z,54.4640
2019-05-06T07:54:53.609Z,50.6722
2019-05-06T07:57:13.032Z,56.3714
2019-05-06T07:59:33.387Z,50.8232
2019-05-06T08:01:54.083Z,51.8029
2019-05-06T08:04:13.498Z,55.3094
2019-05-06T08:06:32.617Z,48.9281
2019-05-06T08:08:53.766Z,45.5100
2019-05-06T08:11:13.291Z,47.2435
2019-05-06T08:13:32.642Z,51.8669
2019-05-06T08:15:53.042Z,49.9947
2019-05-06T08:18:12.869Z,48.7282
2019-05-06T08:20:34.736Z,47.8904
2019-05-06T08:22:56.294Z,48.7144
2019-05-06T08:25:16.297Z,48.6732
2019-05-06T08:27:37.361Z,45.7389
2019-05-06T08:29:56.743Z,48.5954
2019-05-06T08:34:47.264Z,49.7063
2019-05-06T08:37:07.273Z,52.9061
2019-05-06T08:39:26.995Z,47.1153
2019-05-06T08:44:25.027Z,49.5689
2019-05-06T08:46:43.717Z,52.6635
2019-05-06T08:49:05.414Z,52.2789
2019-05-06T08:51:24.502Z,51.9005
2019-05-06T08:53:46.346Z,53.8506
2019-05-06T08:56:06.069Z,54.2245
2019-05-06T08:58:26.351Z,47.7577
2019-05-06T09:03:14.354Z,51.0521
2019-05-06T09:05:35.045Z,47.8767
2019-05-06T09:07:54.587Z,43.0732
2019-05-06T09:10:14.127Z,40.5646
2019-05-06T09:12:34.884Z,45.1102
2019-05-06T09:14:53.435Z,47.2999
2019-05-06T09:17:12.086Z,48.3391
2019-05-06T09:19:33.187Z,49.0059
2019-05-06T09:21:57.290Z,49.1020
2019-05-06T09:26:52.269Z,49.0257
2019-05-06T09:32:05.032Z,49.2805
2019-05-06T09:34:28.268Z,47.8752
2019-05-06T09:36:52.684Z,50.6462
2019-05-06T09:39:19.284Z,47.9255
2019-05-06T09:41:37.467Z,54.8852
2019-05-06T09:43:56.917Z,51.5618
2019-05-06T09:46:15.965Z,54.0291
2019-05-06T09:48:34.433Z,51.7128
2019-05-06T09:50:53.719Z,51.7174
2019-05-06T09:53:13.763Z,50.2892
2019-05-06T09:58:12.433Z,48.8701
2019-05-06T10:00:32.975Z,44.6540
2019-05-06T10:05:28.576Z,46.1646
2019-05-06T10:07:52.265Z,48.7404
2019-05-06T10:10:11.259Z,43.2486
2019-05-06T10:12:29.696Z,50.4540
2019-05-06T10:17:31.088Z,46.6667
2019-05-06T10:19:50.492Z,48.9509
2019-05-06T10:24:43.177Z,47.3869
2019-05-06T10:27:02.754Z,48.4657
2019-05-06T10:29:27.709Z,48.7510
2019-05-06T10:31:45.389Z,46.6850
2019-05-06T10:34:03.187Z,50.5638
2019-05-06T10:39:02.445Z,42.2126
2019-05-06T10:41:22.413Z,48.7037
2019-05-06T10:43:43.376Z,45.7282
2019-05-06T10:48:42.448Z,44.6387
2019-05-06T10:51:03.379Z,45.4719
2019-05-06T10:53:24.813Z,43.5218
2019-05-06T10:55:43.343Z,43.6515
2019-05-06T11:00:36.294Z,40.8804
2019-05-06T11:05:32.558Z,44.5701
2019-05-06T11:07:52.518Z,42.5193
2019-05-06T11:10:23.890Z,42.9099
2019-05-06T11:12:38.653Z,41.9852
2019-05-06T11:17:34.100Z,42.0890
2019-05-06T11:19:56.361Z,42.0432
2019-05-06T11:22:21.208Z,46.6316
2019-05-06T11:27:28.070Z,47.9362
2019-05-06T11:29:37.918Z,46.4988
2019-05-06T11:31:56.584Z,42.6429
2019-05-06T11:36:45.400Z,47.4128
2019-05-06T11:39:04.363Z,49.1798
2019-05-06T11:41:23.363Z,49.3675
2019-05-06T11:43:43.083Z,48.2979
2019-05-06T11:46:02.595Z,51.1254
2019-05-06T11:50:55.510Z,50.4570
2019-05-06T11:53:13.469Z,51.7342
2019-05-06T11:55:38.050Z,50.6279
2019-05-06T11:57:54.381Z,53.4615
2019-05-06T12:00:12.897Z,50.3792
2019-05-06T12:02:33.021Z,45.9022
2019-05-06T12:04:52.838Z,45.2674
2019-05-06T12:07:15.460Z,41.8616
2019-05-06T12:09:34.604Z,49.7948
2019-05-06T12:11:53.094Z,38.9090
2019-05-06T12:14:12.389Z,44.3549
2019-05-06T12:16:33.169Z,41.3306
2019-05-06T12:18:55.709Z,40.5570
2019-05-06T12:21:19.135Z,45.7328
2019-05-06T12:23:39.005Z,44.2832
2019-05-06T12:25:57.499Z,46.5751
2019-05-06T12:28:21.269Z,49.4652
2019-05-06T12:30:42.709Z,42.8229
2019-05-06T12:33:03.135Z,40.0214
2019-05-06T12:35:22.183Z,45.0111
2019-05-06T12:40:37.239Z,45.5680
2019-05-06T12:42:58.908Z,49.6513
2019-05-06T12:45:17.388Z,48.5161
2019-05-06T13:12:48.929Z,50.5638
2019-05-06T13:15:08.144Z,45.6458
2019-05-06T13:28:57.663Z,51.8578
2019-05-06T13:38:08.477Z,54.8165
2019-05-06T13:47:19.134Z,54.7280
2019-05-06T13:49:37.625Z,50.3624
2019-05-06T14:07:57.798Z,51.8410
2019-05-06T14:44:39.139Z,53.6431
2019-05-06T14:46:57.622Z,50.0587
2019-05-06T15:21:36.184Z,55.0759
2019-05-06T15:39:49.409Z,56.4645
2019-05-06T15:45:57.615Z,54.3526
2019-05-06T15:54:08.936Z,56.5179
2019-05-06T16:00:38.107Z,55.5428
2019-05-06T16:08:48.578Z,69.1676
2019-05-06T16:21:07.430Z,51.3268
2019-05-06T16:33:27.601Z,57.6623
2019-05-06T16:49:47.799Z,66.7308
2019-05-06T16:57:58.382Z,69.1218
2019-05-06T17:02:18.786Z,73.7682
2019-05-06T18:30:15.903Z,83.7842
2019-05-06T18:51:50.978Z,88.4092
2019-05-06T19:04:08.095Z,87.4830
2019-05-06T19:24:39.135Z,88.2307
2019-05-06T19:41:28.256Z,88.6000
2019-05-06T19:51:48.874Z,89.5201
2019-05-06T20:02:09.562Z,89.7139
2019-05-06T20:23:48.593Z,91.8837
2019-05-06T20:44:29.257Z,92.1767
2019-05-06T21:00:52.786Z,93.7270
2019-05-06T21:17:29.060Z,94.1390
2019-05-06T21:19:33.124Z,95.1049
2019-05-06T21:24:15.331Z,95.1705
2019-05-06T21:41:25.536Z,94.1894
2019-05-06T21:55:45.859Z,93.0861
2019-05-06T22:12:05.777Z,91.8502
2019-05-06T22:26:35.026Z,92.5017
2019-05-06T22:42:55.831Z,92.8939
2019-05-06T23:07:45.012Z,97.7981
2019-05-06T23:20:05.141Z,96.0540
2019-05-06T23:28:16.362Z,97.2213
